sensor_id;sensor_type;location;lat;lon;timestamp;pressure;altitude;pressure_sealevel;temperature;humidity
35694;BME280;21812;55.536;37.664;2022-12-18T00:00:41;99204.31;;;-2.45;73.06
35694;BME280;21812;55.536;37.664;2022-12-18T00:03:07;99188.84;;;-2.48;73.28
35694;BME280;21812;55.536;37.664;2022-12-18T00:05:33;99190.75;;;-2.50;72.82
35694;BME280;21812;55.536;37.664;2022-12-18T00:07:58;99195.38;;;-2.42;72.81
35694;BME280;21812;55.536;37.664;2022-12-18T00:10:24;99182.06;;;-2.39;72.72
35694;BME280;21812;55.536;37.664;2022-12-18T00:12:52;99181.59;;;-2.44;72.84
35694;BME280;21812;55.536;37.664;2022-12-18T00:15:18;99182.56;;;-2.34;72.92
35694;BME280;21812;55.536;37.664;2022-12-18T00:17:44;99156.28;;;-2.44;72.78
35694;BME280;21812;55.536;37.664;2022-12-18T00:20:10;99168.28;;;-2.30;72.13
35694;BME280;21812;55.536;37.664;2022-12-18T00:22:36;99158.19;;;-2.46;71.99
35694;BME280;21812;55.536;37.664;2022-12-18T00:25:01;99159.63;;;-2.42;72.08
35694;BME280;21812;55.536;37.664;2022-12-18T00:27:29;99135.75;;;-2.60;72.34
35694;BME280;21812;55.536;37.664;2022-12-18T00:29:54;99158.88;;;-2.44;72.55
35694;BME280;21812;55.536;37.664;2022-12-18T00:32:20;99146.06;;;-2.47;72.30
35694;BME280;21812;55.536;37.664;2022-12-18T00:34:46;99149.28;;;-2.43;72.08
35694;BME280;21812;55.536;37.664;2022-12-18T00:37:11;99143.81;;;-2.51;71.93
35694;BME280;21812;55.536;37.664;2022-12-18T00:39:37;99142.75;;;-2.49;72.33
35694;BME280;21812;55.536;37.664;2022-12-18T00:42:02;99141.66;;;-2.46;72.23
35694;BME280;21812;55.536;37.664;2022-12-18T00:45:04;99132.53;;;-2.52;72.10
35694;BME280;21812;55.536;37.664;2022-12-18T00:47:30;99114.72;;;-2.69;72.07
35694;BME280;21812;55.536;37.664;2022-12-18T00:49:56;99086.59;;;-2.88;72.29
35694;BME280;21812;55.536;37.664;2022-12-18T00:52:21;99115.22;;;-2.64;72.58
35694;BME280;21812;55.536;37.664;2022-12-18T00:54:47;99118.75;;;-2.54;72.61
35694;BME280;21812;55.536;37.664;2022-12-18T00:57:13;99114.84;;;-2.60;71.75
35694;BME280;21812;55.536;37.664;2022-12-18T00:59:38;99118.75;;;-2.54;72.14
35694;BME280;21812;55.536;37.664;2022-12-18T01:02:04;99105.66;;;-2.54;71.96
35694;BME280;21812;55.536;37.664;2022-12-18T01:04:33;99089.88;;;-2.64;71.98
35694;BME280;21812;55.536;37.664;2022-12-18T01:06:59;99100.22;;;-2.62;71.57
35694;BME280;21812;55.536;37.664;2022-12-18T01:09:26;99098.56;;;-2.63;71.68
35694;BME280;21812;55.536;37.664;2022-12-18T01:11:52;99095.50;;;-2.68;71.83
35694;BME280;21812;55.536;37.664;2022-12-18T01:14:17;99099.16;;;-2.71;71.82
35694;BME280;21812;55.536;37.664;2022-12-18T01:16:43;99092.63;;;-2.65;71.95
35694;BME280;21812;55.536;37.664;2022-12-18T01:19:09;99089.06;;;-2.64;71.46
35694;BME280;21812;55.536;37.664;2022-12-18T01:21:34;99089.78;;;-2.62;71.64
35694;BME280;21812;55.536;37.664;2022-12-18T01:24:03;99079.53;;;-2.65;71.50
35694;BME280;21812;55.536;37.664;2022-12-18T01:26:29;99081.47;;;-2.67;71.25
35694;BME280;21812;55.536;37.664;2022-12-18T01:28:56;99080.03;;;-2.60;71.51
35694;BME280;21812;55.536;37.664;2022-12-18T01:31:28;99027.44;;;-2.89;71.35
35694;BME280;21812;55.536;37.664;2022-12-18T01:33:55;99082.53;;;-2.59;70.91
35694;BME280;21812;55.536;37.664;2022-12-18T01:36:26;99078.50;;;-2.63;70.99
35694;BME280;21812;55.536;37.664;2022-12-18T01:38:53;99075.03;;;-2.75;70.83
35694;BME280;21812;55.536;37.664;2022-12-18T01:41:24;99082.19;;;-2.77;71.22
35694;BME280;21812;55.536;37.664;2022-12-18T01:43:54;99004.78;;;-3.11;71.22
35694;BME280;21812;55.536;37.664;2022-12-18T01:46:22;99054.91;;;-2.95;70.97
35694;BME280;21812;55.536;37.664;2022-12-18T01:49:00;98992.56;;;-3.45;71.62
35694;BME280;21812;55.536;37.664;2022-12-18T01:51:27;99067.47;;;-3.00;72.26
35694;BME280;21812;55.536;37.664;2022-12-18T01:53:55;99066.50;;;-2.99;72.11
35694;BME280;21812;55.536;37.664;2022-12-18T01:56:21;99052.16;;;-3.05;72.11
35694;BME280;21812;55.536;37.664;2022-12-18T01:58:54;99067.59;;;-2.79;71.94
35694;BME280;21812;55.536;37.664;2022-12-18T02:01:23;98999.09;;;-3.28;71.54
35694;BME280;21812;55.536;37.664;2022-12-18T02:03:49;99046.47;;;-2.99;72.05
35694;BME280;21812;55.536;37.664;2022-12-18T02:09:34;99052.13;;;-2.71;72.03
35694;BME280;21812;55.536;37.664;2022-12-18T02:12:11;99055.81;;;-2.73;71.67
35694;BME280;21812;55.536;37.664;2022-12-18T02:17:50;99017.38;;;-3.05;72.00
35694;BME280;21812;55.536;37.664;2022-12-18T02:25:52;99052.50;;;-2.76;71.62
35694;BME280;21812;55.536;37.664;2022-12-18T02:28:25;98994.84;;;-3.18;71.37
35694;BME280;21812;55.536;37.664;2022-12-18T02:30:59;99031.03;;;-3.02;71.52
35694;BME280;21812;55.536;37.664;2022-12-18T02:33:28;99039.22;;;-3.06;71.39
35694;BME280;21812;55.536;37.664;2022-12-18T02:35:57;99054.03;;;-2.96;71.53
35694;BME280;21812;55.536;37.664;2022-12-18T02:38:25;99052.75;;;-3.01;71.41
35694;BME280;21812;55.536;37.664;2022-12-18T02:40:53;99038.03;;;-3.13;71.16
35694;BME280;21812;55.536;37.664;2022-12-18T02:43:19;99063.44;;;-3.04;71.43
35694;BME280;21812;55.536;37.664;2022-12-18T02:45:57;98961.41;;;-3.58;71.57
35694;BME280;21812;55.536;37.664;2022-12-18T02:48:30;99056.22;;;-3.12;71.30
35694;BME280;21812;55.536;37.664;2022-12-18T02:51:11;98973.34;;;-3.66;71.67
35694;BME280;21812;55.536;37.664;2022-12-18T02:53:48;99050.13;;;-3.12;71.88
35694;BME280;21812;55.536;37.664;2022-12-18T02:56:20;98993.31;;;-3.54;71.90
35694;BME280;21812;55.536;37.664;2022-12-18T02:58:52;99063.69;;;-3.07;71.77
35694;BME280;21812;55.536;37.664;2022-12-18T03:01:59;99047.78;;;-3.04;71.40
35694;BME280;21812;55.536;37.664;2022-12-18T03:04:39;99045.16;;;-3.16;71.76
35694;BME280;21812;55.536;37.664;2022-12-18T03:07:13;99036.75;;;-3.30;72.05
35694;BME280;21812;55.536;37.664;2022-12-18T03:09:47;99038.03;;;-3.36;72.57
35694;BME280;21812;55.536;37.664;2022-12-18T03:12:29;99015.00;;;-3.54;71.90
35694;BME280;21812;55.536;37.664;2022-12-18T03:15:09;99048.38;;;-3.23;72.27
35694;BME280;21812;55.536;37.664;2022-12-18T03:17:41;98995.06;;;-3.55;71.64
35694;BME280;21812;55.536;37.664;2022-12-18T03:20:15;98947.50;;;-3.92;71.99
35694;BME280;21812;55.536;37.664;2022-12-18T03:22:45;99028.06;;;-3.42;72.02
35694;BME280;21812;55.536;37.664;2022-12-18T03:25:14;98979.66;;;-3.69;72.24
35694;BME280;21812;55.536;37.664;2022-12-18T03:27:47;98966.22;;;-3.76;72.01
35694;BME280;21812;55.536;37.664;2022-12-18T03:30:15;99044.78;;;-3.34;71.99
35694;BME280;21812;55.536;37.664;2022-12-18T03:33:08;99057.03;;;-3.34;71.59
35694;BME280;21812;55.536;37.664;2022-12-18T03:35:40;98996.25;;;-3.70;71.88
35694;BME280;21812;55.536;37.664;2022-12-18T03:38:08;99065.09;;;-3.26;71.92
35694;BME280;21812;55.536;37.664;2022-12-18T03:43:24;98975.97;;;-3.78;71.75
35694;BME280;21812;55.536;37.664;2022-12-18T03:46:04;99044.91;;;-3.35;71.92
35694;BME280;21812;55.536;37.664;2022-12-18T03:48:38;99072.69;;;-3.34;71.54
35694;BME280;21812;55.536;37.664;2022-12-18T03:51:35;99072.47;;;-3.31;71.65
35694;BME280;21812;55.536;37.664;2022-12-18T03:54:04;98992.56;;;-3.79;71.46
35694;BME280;21812;55.536;37.664;2022-12-18T03:56:40;99017.13;;;-3.70;70.87
35694;BME280;21812;55.536;37.664;2022-12-18T03:59:09;99005.97;;;-3.72;70.93
35694;BME280;21812;55.536;37.664;2022-12-18T04:01:41;99071.28;;;-3.38;71.22
35694;BME280;21812;55.536;37.664;2022-12-18T04:04:10;99060.81;;;-3.38;71.37
35694;BME280;21812;55.536;37.664;2022-12-18T04:06:40;98999.09;;;-3.84;70.94
35694;BME280;21812;55.536;37.664;2022-12-18T04:09:08;99085.63;;;-3.32;71.14
35694;BME280;21812;55.536;37.664;2022-12-18T04:11:40;99049.41;;;-3.60;70.76
35694;BME280;21812;55.536;37.664;2022-12-18T04:14:06;99114.94;;;-3.40;70.79
35694;BME280;21812;55.536;37.664;2022-12-18T04:16:32;99108.75;;;-3.39;71.00
35694;BME280;21812;55.536;37.664;2022-12-18T04:19:01;99109.25;;;-3.34;71.05
35694;BME280;21812;55.536;37.664;2022-12-18T04:21:34;99101.88;;;-3.51;70.84
35694;BME280;21812;55.536;37.664;2022-12-18T04:23:59;99115.41;;;-3.46;71.12
35694;BME280;21812;55.536;37.664;2022-12-18T04:26:27;99127.50;;;-3.45;70.97
35694;BME280;21812;55.536;37.664;2022-12-18T04:29:15;99144.44;;;-3.51;70.91
35694;BME280;21812;55.536;37.664;2022-12-18T04:31:41;99132.50;;;-3.42;71.15
35694;BME280;21812;55.536;37.664;2022-12-18T04:34:06;99135.56;;;-3.37;70.48
35694;BME280;21812;55.536;37.664;2022-12-18T04:36:38;99145.94;;;-3.24;70.32
35694;BME280;21812;55.536;37.664;2022-12-18T04:39:04;99128.34;;;-3.34;69.74
35694;BME280;21812;55.536;37.664;2022-12-18T04:41:30;99145.81;;;-3.23;69.81
35694;BME280;21812;55.536;37.664;2022-12-18T04:43:56;99157.94;;;-3.22;69.57
35694;BME280;21812;55.536;37.664;2022-12-18T04:46:22;99165.78;;;-3.22;69.81
35694;BME280;21812;55.536;37.664;2022-12-18T04:48:48;99168.13;;;-3.30;69.11
35694;BME280;21812;55.536;37.664;2022-12-18T04:51:13;99164.78;;;-3.32;69.61
35694;BME280;21812;55.536;37.664;2022-12-18T04:53:39;99144.69;;;-3.54;69.58
35694;BME280;21812;55.536;37.664;2022-12-18T04:56:10;99143.47;;;-3.61;69.81
35694;BME280;21812;55.536;37.664;2022-12-18T04:58:38;99171.44;;;-3.28;69.85
35694;BME280;21812;55.536;37.664;2022-12-18T05:01:04;99175.03;;;-3.29;69.44
35694;BME280;21812;55.536;37.664;2022-12-18T05:03:31;99183.03;;;-3.43;69.56
35694;BME280;21812;55.536;37.664;2022-12-18T05:05:57;99182.22;;;-3.44;69.76
35694;BME280;21812;55.536;37.664;2022-12-18T05:08:23;99169.94;;;-3.55;69.32
35694;BME280;21812;55.536;37.664;2022-12-18T05:10:48;99172.22;;;-3.50;69.70
35694;BME280;21812;55.536;37.664;2022-12-18T05:13:14;99176.16;;;-3.44;69.53
35694;BME280;21812;55.536;37.664;2022-12-18T05:15:40;99159.78;;;-3.46;69.72
35694;BME280;21812;55.536;37.664;2022-12-18T05:18:07;99181.16;;;-3.41;68.85
35694;BME280;21812;55.536;37.664;2022-12-18T05:20:33;99196.81;;;-3.41;69.19
35694;BME280;21812;55.536;37.664;2022-12-18T05:22:58;99198.03;;;-3.34;68.90
35694;BME280;21812;55.536;37.664;2022-12-18T05:25:24;99216.81;;;-3.29;68.51
35694;BME280;21812;55.536;37.664;2022-12-18T05:27:50;99206.06;;;-3.37;68.57
35694;BME280;21812;55.536;37.664;2022-12-18T05:30:16;99214.03;;;-3.39;68.37
35694;BME280;21812;55.536;37.664;2022-12-18T05:32:42;99217.81;;;-3.43;68.38
35694;BME280;21812;55.536;37.664;2022-12-18T05:35:09;99219.59;;;-3.43;68.39
35694;BME280;21812;55.536;37.664;2022-12-18T05:37:34;99234.78;;;-3.37;68.26
35694;BME280;21812;55.536;37.664;2022-12-18T05:40:00;99234.38;;;-3.31;68.30
35694;BME280;21812;55.536;37.664;2022-12-18T05:42:26;99244.81;;;-3.31;68.09
35694;BME280;21812;55.536;37.664;2022-12-18T05:44:52;99240.00;;;-3.37;68.05
35694;BME280;21812;55.536;37.664;2022-12-18T05:47:17;99234.56;;;-3.34;68.86
35694;BME280;21812;55.536;37.664;2022-12-18T05:49:43;99231.47;;;-3.39;68.19
35694;BME280;21812;55.536;37.664;2022-12-18T05:52:08;99235.25;;;-3.43;68.36
35694;BME280;21812;55.536;37.664;2022-12-18T05:54:34;99249.97;;;-3.42;68.61
35694;BME280;21812;55.536;37.664;2022-12-18T05:57:00;99254.13;;;-3.40;68.45
35694;BME280;21812;55.536;37.664;2022-12-18T05:59:25;99255.94;;;-3.40;68.62
35694;BME280;21812;55.536;37.664;2022-12-18T06:01:51;99256.25;;;-3.45;69.02
35694;BME280;21812;55.536;37.664;2022-12-18T06:04:16;99261.00;;;-3.50;69.00
35694;BME280;21812;55.536;37.664;2022-12-18T06:06:42;99252.03;;;-3.59;69.35
35694;BME280;21812;55.536;37.664;2022-12-18T06:09:08;99265.34;;;-3.50;69.42
35694;BME280;21812;55.536;37.664;2022-12-18T06:11:36;99164.84;;;-4.28;69.00
35694;BME280;21812;55.536;37.664;2022-12-18T06:14:03;99272.72;;;-3.56;69.40
35694;BME280;21812;55.536;37.664;2022-12-18T06:16:29;99271.25;;;-3.60;69.35
35694;BME280;21812;55.536;37.664;2022-12-18T06:18:59;99283.03;;;-3.54;69.58
35694;BME280;21812;55.536;37.664;2022-12-18T06:21:26;99289.41;;;-3.58;69.46
35694;BME280;21812;55.536;37.664;2022-12-18T06:23:52;99293.28;;;-3.64;69.78
35694;BME280;21812;55.536;37.664;2022-12-18T06:26:18;99308.63;;;-3.59;69.98
35694;BME280;21812;55.536;37.664;2022-12-18T06:28:44;99306.75;;;-3.57;69.78
35694;BME280;21812;55.536;37.664;2022-12-18T06:31:10;99313.41;;;-3.53;69.76
35694;BME280;21812;55.536;37.664;2022-12-18T06:33:36;99311.19;;;-3.46;69.65
35694;BME280;21812;55.536;37.664;2022-12-18T06:36:08;99224.97;;;-4.06;69.26
35694;BME280;21812;55.536;37.664;2022-12-18T06:38:36;99332.84;;;-3.57;69.64
35694;BME280;21812;55.536;37.664;2022-12-18T06:43:34;99354.56;;;-3.57;69.79
35694;BME280;21812;55.536;37.664;2022-12-18T06:46:00;99366.50;;;-3.41;69.27
35694;BME280;21812;55.536;37.664;2022-12-18T06:48:26;99366.31;;;-3.38;69.04
35694;BME280;21812;55.536;37.664;2022-12-18T06:50:52;99368.09;;;-3.39;68.74
35694;BME280;21812;55.536;37.664;2022-12-18T06:53:18;99360.91;;;-3.48;68.71
35694;BME280;21812;55.536;37.664;2022-12-18T06:55:44;99374.13;;;-3.38;68.49
35694;BME280;21812;55.536;37.664;2022-12-18T06:58:09;99374.34;;;-3.41;68.60
35694;BME280;21812;55.536;37.664;2022-12-18T07:00:35;99371.19;;;-3.34;68.55
35694;BME280;21812;55.536;37.664;2022-12-18T07:03:01;99378.47;;;-3.26;68.21
35694;BME280;21812;55.536;37.664;2022-12-18T07:05:27;99342.53;;;-3.46;67.83
35694;BME280;21812;55.536;37.664;2022-12-18T07:07:52;99386.19;;;-3.24;67.30
35694;BME280;21812;55.536;37.664;2022-12-18T07:10:18;99380.06;;;-3.36;67.57
35694;BME280;21812;55.536;37.664;2022-12-18T07:12:44;99398.00;;;-3.31;67.82
35694;BME280;21812;55.536;37.664;2022-12-18T07:15:09;99405.47;;;-3.38;67.07
35694;BME280;21812;55.536;37.664;2022-12-18T07:17:37;99410.25;;;-3.32;67.44
35694;BME280;21812;55.536;37.664;2022-12-18T07:20:03;99410.97;;;-3.30;67.16
35694;BME280;21812;55.536;37.664;2022-12-18T07:22:29;99421.31;;;-3.28;66.95
35694;BME280;21812;55.536;37.664;2022-12-18T07:24:55;99420.25;;;-3.26;67.08
35694;BME280;21812;55.536;37.664;2022-12-18T07:27:21;99422.13;;;-3.28;66.51
35694;BME280;21812;55.536;37.664;2022-12-18T07:29:47;99415.41;;;-3.43;66.34
35694;BME280;21812;55.536;37.664;2022-12-18T07:32:13;99422.78;;;-3.37;66.33
35694;BME280;21812;55.536;37.664;2022-12-18T07:34:38;99427.34;;;-3.28;66.47
35694;BME280;21812;55.536;37.664;2022-12-18T07:37:04;99432.16;;;-3.22;66.03
35694;BME280;21812;55.536;37.664;2022-12-18T07:39:30;99427.53;;;-3.18;66.32
35694;BME280;21812;55.536;37.664;2022-12-18T07:41:56;99432.22;;;-3.10;65.99
35694;BME280;21812;55.536;37.664;2022-12-18T07:44:40;99438.94;;;-3.19;65.52
35694;BME280;21812;55.536;37.664;2022-12-18T07:47:05;99432.81;;;-3.31;65.63
35694;BME280;21812;55.536;37.664;2022-12-18T07:49:31;99455.44;;;-3.19;65.46
35694;BME280;21812;55.536;37.664;2022-12-18T07:51:57;99438.25;;;-3.34;65.41
35694;BME280;21812;55.536;37.664;2022-12-18T07:54:24;99449.16;;;-3.16;65.19
35694;BME280;21812;55.536;37.664;2022-12-18T07:56:50;99462.41;;;-3.06;65.17
35694;BME280;21812;55.536;37.664;2022-12-18T07:59:17;99435.50;;;-3.20;64.90
35694;BME280;21812;55.536;37.664;2022-12-18T08:01:42;99460.75;;;-3.07;65.04
35694;BME280;21812;55.536;37.664;2022-12-18T08:04:08;99399.97;;;-3.46;65.12
35694;BME280;21812;55.536;37.664;2022-12-18T08:06:34;99478.09;;;-3.06;64.42
35694;BME280;21812;55.536;37.664;2022-12-18T08:09:00;99486.69;;;-3.17;64.46
35694;BME280;21812;55.536;37.664;2022-12-18T08:11:26;99492.97;;;-3.20;64.93
35694;BME280;21812;55.536;37.664;2022-12-18T08:13:53;99494.41;;;-3.16;64.90
35694;BME280;21812;55.536;37.664;2022-12-18T08:16:19;99487.41;;;-3.15;64.48
35694;BME280;21812;55.536;37.664;2022-12-18T08:18:45;99491.91;;;-3.17;64.26
35694;BME280;21812;55.536;37.664;2022-12-18T08:21:13;99486.50;;;-3.27;64.50
35694;BME280;21812;55.536;37.664;2022-12-18T08:23:39;99505.59;;;-3.13;64.60
35694;BME280;21812;55.536;37.664;2022-12-18T08:26:05;99498.38;;;-3.10;64.08
35694;BME280;21812;55.536;37.664;2022-12-18T08:28:31;99509.66;;;-3.09;63.79
35694;BME280;21812;55.536;37.664;2022-12-18T08:30:57;99513.63;;;-3.17;64.12
35694;BME280;21812;55.536;37.664;2022-12-18T08:33:23;99517.31;;;-3.19;64.34
35694;BME280;21812;55.536;37.664;2022-12-18T08:35:49;99522.81;;;-3.24;64.41
35694;BME280;21812;55.536;37.664;2022-12-18T08:38:14;99507.16;;;-3.24;64.50
35694;BME280;21812;55.536;37.664;2022-12-18T08:40:40;99520.63;;;-3.17;64.55
35694;BME280;21812;55.536;37.664;2022-12-18T08:43:08;99521.69;;;-3.20;64.43
35694;BME280;21812;55.536;37.664;2022-12-18T08:45:53;99524.50;;;-3.10;64.17
35694;BME280;21812;55.536;37.664;2022-12-18T08:48:19;99529.72;;;-3.10;64.41
35694;BME280;21812;55.536;37.664;2022-12-18T08:50:54;99538.72;;;-3.14;64.32
35694;BME280;21812;55.536;37.664;2022-12-18T08:53:19;99533.91;;;-3.20;64.65
35694;BME280;21812;55.536;37.664;2022-12-18T08:55:45;99536.41;;;-3.19;64.62
35694;BME280;21812;55.536;37.664;2022-12-18T08:58:10;99533.78;;;-3.06;64.61
35694;BME280;21812;55.536;37.664;2022-12-18T09:00:36;99543.50;;;-2.95;63.87
35694;BME280;21812;55.536;37.664;2022-12-18T09:03:02;99550.88;;;-2.89;63.65
35694;BME280;21812;55.536;37.664;2022-12-18T09:05:27;99555.59;;;-2.94;63.48
35694;BME280;21812;55.536;37.664;2022-12-18T09:07:53;99562.81;;;-2.98;64.13
35694;BME280;21812;55.536;37.664;2022-12-18T09:10:18;99567.41;;;-2.88;68.99
35694;BME280;21812;55.536;37.664;2022-12-18T09:12:44;99568.22;;;-1.67;71.67
35694;BME280;21812;55.536;37.664;2022-12-18T09:15:10;99568.84;;;-1.07;62.26
35694;BME280;21812;55.536;37.664;2022-12-18T09:17:35;99570.19;;;-0.35;64.00
35694;BME280;21812;55.536;37.664;2022-12-18T09:20:01;99569.09;;;-0.01;57.84
35694;BME280;21812;55.536;37.664;2022-12-18T09:22:28;99575.34;;;0.19;63.20
35694;BME280;21812;55.536;37.664;2022-12-18T09:24:54;99589.34;;;0.09;55.90
35694;BME280;21812;55.536;37.664;2022-12-18T09:27:20;99575.78;;;-0.40;59.49
35694;BME280;21812;55.536;37.664;2022-12-18T09:29:45;99581.88;;;-0.28;58.90
35694;BME280;21812;55.536;37.664;2022-12-18T09:32:11;99575.94;;;0.23;67.82
35694;BME280;21812;55.536;37.664;2022-12-18T09:34:36;99594.94;;;1.09;58.99
35694;BME280;21812;55.536;37.664;2022-12-18T09:37:02;99580.97;;;1.09;58.48
35694;BME280;21812;55.536;37.664;2022-12-18T09:39:28;99595.34;;;0.53;55.43
35694;BME280;21812;55.536;37.664;2022-12-18T09:41:56;99609.00;;;-0.07;55.24
35694;BME280;21812;55.536;37.664;2022-12-18T09:47:30;99598.25;;;-0.04;57.11
35694;BME280;21812;55.536;37.664;2022-12-18T09:49:51;99532.41;;;-0.12;58.18
35694;BME280;21812;55.536;37.664;2022-12-18T09:52:35;99543.97;;;-0.47;56.64
35694;BME280;21812;55.536;37.664;2022-12-18T09:55:12;99587.06;;;-0.49;59.50
35694;BME280;21812;55.536;37.664;2022-12-18T09:57:45;99549.88;;;-0.77;59.24
35694;BME280;21812;55.536;37.664;2022-12-18T10:00:30;99612.34;;;-0.16;62.20
35694;BME280;21812;55.536;37.664;2022-12-18T10:03:08;99597.31;;;-0.14;60.90
35694;BME280;21812;55.536;37.664;2022-12-18T10:25:27;99613.94;;;0.40;65.33
35694;BME280;21812;55.536;37.664;2022-12-18T10:28:03;99608.97;;;0.68;63.45
35694;BME280;21812;55.536;37.664;2022-12-18T10:30:32;99620.38;;;0.78;61.70
35694;BME280;21812;55.536;37.664;2022-12-18T10:33:04;99619.03;;;0.42;60.66
35694;BME280;21812;55.536;37.664;2022-12-18T10:35:30;99627.28;;;0.16;63.58
35694;BME280;21812;55.536;37.664;2022-12-18T10:40:29;99630.81;;;0.26;69.26
35694;BME280;21812;55.536;37.664;2022-12-18T10:43:15;99643.38;;;0.44;69.79
35694;BME280;21812;55.536;37.664;2022-12-18T10:45:41;99630.41;;;0.42;63.95
35694;BME280;21812;55.536;37.664;2022-12-18T10:48:20;99560.63;;;-0.36;59.59
35694;BME280;21812;55.536;37.664;2022-12-18T10:50:49;99663.34;;;-0.30;62.61
35694;BME280;21812;55.536;37.664;2022-12-18T10:53:20;99685.16;;;-0.41;61.69
35694;BME280;21812;55.536;37.664;2022-12-18T10:55:47;99691.84;;;-0.48;61.58
35694;BME280;21812;55.536;37.664;2022-12-18T10:58:26;99698.78;;;-0.47;63.21
35694;BME280;21812;55.536;37.664;2022-12-18T11:04:19;99701.63;;;-0.50;64.01
35694;BME280;21812;55.536;37.664;2022-12-18T11:06:25;99697.34;;;-0.62;62.52
35694;BME280;21812;55.536;37.664;2022-12-18T11:09:00;99685.44;;;-0.66;64.46
35694;BME280;21812;55.536;37.664;2022-12-18T11:11:26;99691.38;;;-0.75;63.53
35694;BME280;21812;55.536;37.664;2022-12-18T11:14:02;99699.84;;;-0.83;63.22
35694;BME280;21812;55.536;37.664;2022-12-18T11:16:33;99692.78;;;-0.94;67.49
35694;BME280;21812;55.536;37.664;2022-12-18T11:21:53;99700.88;;;-0.86;65.40
35694;BME280;21812;55.536;37.664;2022-12-18T11:24:35;99696.38;;;-0.95;64.10
35694;BME280;21812;55.536;37.664;2022-12-18T11:27:03;99709.31;;;-1.16;63.87
35694;BME280;21812;55.536;37.664;2022-12-18T11:29:35;99646.50;;;-1.64;64.88
35694;BME280;21812;55.536;37.664;2022-12-18T11:32:23;99716.19;;;-0.57;64.09
35694;BME280;21812;55.536;37.664;2022-12-18T11:35:03;99655.72;;;-0.67;63.39
35694;BME280;21812;55.536;37.664;2022-12-18T11:37:35;99730.47;;;-0.61;61.99
35694;BME280;21812;55.536;37.664;2022-12-18T11:40:24;99732.38;;;-0.52;61.56
35694;BME280;21812;55.536;37.664;2022-12-18T11:43:19;99737.47;;;-0.84;63.19
35694;BME280;21812;55.536;37.664;2022-12-18T11:45:53;99745.50;;;-0.52;68.53
35694;BME280;21812;55.536;37.664;2022-12-18T11:48:28;99736.59;;;-0.38;63.68
35694;BME280;21812;55.536;37.664;2022-12-18T11:50:58;99748.81;;;-0.84;62.47
35694;BME280;21812;55.536;37.664;2022-12-18T11:53:26;99762.84;;;-0.96;63.47
35694;BME280;21812;55.536;37.664;2022-12-18T12:01:39;99770.78;;;-0.62;62.98
35694;BME280;21812;55.536;37.664;2022-12-18T12:09:59;99793.81;;;-0.90;65.75
35694;BME280;21812;55.536;37.664;2022-12-18T12:18:38;99807.66;;;-1.23;62.53
35694;BME280;21812;55.536;37.664;2022-12-18T12:26:57;99818.00;;;-2.32;65.46
35694;BME280;21812;55.536;37.664;2022-12-18T12:33:19;99826.34;;;-2.79;67.14
35694;BME280;21812;55.536;37.664;2022-12-18T12:38:12;99842.25;;;-2.82;68.20
35694;BME280;21812;55.536;37.664;2022-12-18T12:40:52;99849.75;;;-2.77;68.19
35694;BME280;21812;55.536;37.664;2022-12-18T12:43:24;99845.78;;;-2.83;67.67
35694;BME280;21812;55.536;37.664;2022-12-18T12:45:55;99852.84;;;-2.98;68.17
35694;BME280;21812;55.536;37.664;2022-12-18T12:51:21;99854.38;;;-3.08;69.20
35694;BME280;21812;55.536;37.664;2022-12-18T12:53:47;99863.59;;;-3.02;68.86
35694;BME280;21812;55.536;37.664;2022-12-18T12:56:16;99849.03;;;-3.19;68.48
35694;BME280;21812;55.536;37.664;2022-12-18T13:01:28;99876.84;;;-3.05;69.29
35694;BME280;21812;55.536;37.664;2022-12-18T13:04:27;99896.09;;;-3.06;69.00
35694;BME280;21812;55.536;37.664;2022-12-18T13:07:04;99841.69;;;-3.54;69.29
35694;BME280;21812;55.536;37.664;2022-12-18T13:09:33;99892.38;;;-3.17;69.61
35694;BME280;21812;55.536;37.664;2022-12-18T13:12:18;99899.72;;;-3.09;69.59
35694;BME280;21812;55.536;37.664;2022-12-18T13:15:13;99827.34;;;-3.61;69.74
35694;BME280;21812;55.536;37.664;2022-12-18T13:17:46;99906.88;;;-3.25;69.72
35694;BME280;21812;55.536;37.664;2022-12-18T13:20:13;99908.28;;;-3.34;70.58
35694;BME280;21812;55.536;37.664;2022-12-18T13:22:47;99870.50;;;-3.70;70.31
35694;BME280;21812;55.536;37.664;2022-12-18T13:25:31;99853.75;;;-3.80;70.69
35694;BME280;21812;55.536;37.664;2022-12-18T13:33:42;99943.47;;;-3.40;71.03
35694;BME280;21812;55.536;37.664;2022-12-18T13:41:45;99962.41;;;-3.36;71.03
35694;BME280;21812;55.536;37.664;2022-12-18T13:44:31;99961.09;;;-3.29;70.83
35694;BME280;21812;55.536;37.664;2022-12-18T13:46:58;99946.06;;;-3.40;70.95
35694;BME280;21812;55.536;37.664;2022-12-18T13:52:35;99918.16;;;-3.81;71.87
35694;BME280;21812;55.536;37.664;2022-12-18T13:55:02;99977.25;;;-3.65;71.94
35694;BME280;21812;55.536;37.664;2022-12-18T13:57:31;99993.38;;;-3.59;72.43
35694;BME280;21812;55.536;37.664;2022-12-18T13:59:57;99990.94;;;-3.62;71.96
35694;BME280;21812;55.536;37.664;2022-12-18T14:02:26;99926.44;;;-4.03;72.10
35694;BME280;21812;55.536;37.664;2022-12-18T14:04:53;100008.56;;;-3.51;72.18
35694;BME280;21812;55.536;37.664;2022-12-18T14:07:23;100012.75;;;-3.48;71.74
35694;BME280;21812;55.536;37.664;2022-12-18T14:09:54;99960.19;;;-3.71;71.58
35694;BME280;21812;55.536;37.664;2022-12-18T14:12:27;100009.31;;;-3.49;71.80
35694;BME280;21812;55.536;37.664;2022-12-18T14:15:26;100021.06;;;-3.42;72.21
35694;BME280;21812;55.536;37.664;2022-12-18T14:20:43;99982.19;;;-3.61;71.53
35694;BME280;21812;55.536;37.664;2022-12-18T14:23:30;100048.59;;;-3.22;71.85
35694;BME280;21812;55.536;37.664;2022-12-18T14:25:56;100042.41;;;-3.35;71.32
35694;BME280;21812;55.536;37.664;2022-12-18T14:28:22;100039.63;;;-3.32;71.58
35694;BME280;21812;55.536;37.664;2022-12-18T14:30:48;100047.09;;;-3.40;71.13
35694;BME280;21812;55.536;37.664;2022-12-18T14:33:19;100066.03;;;-3.37;71.92
35694;BME280;21812;55.536;37.664;2022-12-18T14:36:02;100033.38;;;-3.44;71.76
35694;BME280;21812;55.536;37.664;2022-12-18T14:38:39;100066.09;;;-3.24;72.02
35694;BME280;21812;55.536;37.664;2022-12-18T14:43:37;100081.78;;;-3.24;72.16
35694;BME280;21812;55.536;37.664;2022-12-18T14:46:05;100044.00;;;-3.47;71.85